Ship Status Report: callsign AMOUK29

sailwx.info

Track history (hours):
 
Tides and Currents Weather Stations Pressure Air Temp Water Temp Dewpoint Dewpoint Depression Visibility Wind Speed Wind Dir Waves Ship Positions

Callsign AMOUK29 (name unknown)

Last reported at 2016-Feb-12 12:00 UTC. Time now 2016-Feb-12 16:16 UTC.
Position N 54°36' W 005°54'.

Barometer 994.6 mb
Air temperature 4.9 ° C
Dewpoint 2.8 ° C

Date/timePositionNaut miles runAvg speedWind from/ knotsBaromVisibWave heightAir tempDewpointWater temp
2016-Feb-12 12:00N 54°36' W 005°54'7 2.3 994.6 4.9 2.8
2016-Feb-12 09:00N 54°42' W 005°48'7 6.9 994.3 4.4 2.5
2016-Feb-12 08:00N 54°48' W 005°42'3 3.5 993.8 5.1 3.1
2016-Feb-12 07:00N 54°48' W 005°36'3 3.5 993.9 4.8 2.4
2016-Feb-12 06:00N 54°48' W 005°42'0 0.0 993.8 4.8 2.2
2016-Feb-12 05:00N 54°48' W 005°42'3 3.5 993.6 5.2 2.1
2016-Feb-12 04:00N 54°48' W 005°36'0 0.0 994.4 5.2 2.0
2016-Feb-12 03:00N 54°48' W 005°36'0 0.0 994.3 5.2 2.3
2016-Feb-12 02:00N 54°48' W 005°36'6 6.0 995.2 5.4 2.2
2016-Feb-12 01:00N 54°54' W 005°36'0 0.0 996.2 5.4 2.5
2016-Feb-12 00:00N 54°54' W 005°36'6 6.0 996.5 5.4 2.6
2016-Feb-11 23:00N 54°48' W 005°36'7 6.9 997.0 4.8 1.8
2016-Feb-11 22:00N 54°54' W 005°42'9 9.1 998.5 3.5 1.5
2016-Feb-11 21:00N 55°00' W 005°54'6 6.0 998.5 6.0 1.3
2016-Feb-11 20:00N 55°06' W 005°54'7 6.9 999.3 6.0 0.3
2016-Feb-11 19:00N 55°12' W 006°00'1211.9 999.8 5.8 0.5
2016-Feb-11 18:00N 55°18' W 006°18'12 5.9 1000.2 5.6 0.3
2016-Feb-11 16:00N 55°24' W 006°36'3 3.4 1000.7 6.1 1.2
2016-Feb-11 15:00N 55°24' W 006°42'0 0.0 1001.0 6.2-0.4
2016-Feb-11 14:00N 55°24' W 006°42'6 6.0 1001.5 5.8 0.1
2016-Feb-11 13:00N 55°18' W 006°42'0 0.0 1001.9 5.7 1.2
2016-Feb-11 12:00N 55°18' W 006°42'0 0.0 1002.1 5.8 0.6
2016-Feb-11 11:00N 55°18' W 006°42'3 0.9 1002.1 5.6 0.3
2016-Feb-11 07:00N 55°18' W 006°48'0 0.0 1002.0 4.7 1.7
2016-Feb-11 06:00N 55°18' W 006°48'6 3.0 1002.0 4.5 2.0
2016-Feb-11 04:00N 55°12' W 006°48'3 1.1 1002.2 4.1 1.8
2016-Feb-11 01:00N 55°12' W 006°42'12 3.0 1002.4 4.9 1.7
2016-Feb-10 21:00N 55°18' W 006°24'9 9.1 1000.8 6.7-0.7
2016-Feb-10 20:00N 55°24' W 006°36'3 3.4 1000.9 8.1-0.9
2016-Feb-10 19:00N 55°24' W 006°42'3 3.4 1000.6 7.7-0.2
2016-Feb-10 18:00N 55°24' W 006°36'0 0.0 999.9 6.7 1.2
2016-Feb-10 17:00N 55°24' W 006°36'3 3.4 999.2 6.6 1.6
2016-Feb-10 16:00N 55°24' W 006°30'7 6.9 998.8 6.2 0.9
2016-Feb-10 15:00N 55°18' W 006°24'3 3.4 999.3 6.9 2.1
2016-Feb-10 14:00N 55°18' W 006°18'30 4.9 999.0 7.6-0.2
2016-Feb-10 08:00N 54°54' W 005°48'7 3.5 996.1 4.9 0.3
2016-Feb-10 06:00N 54°48' W 005°42'6 6.0 994.8 4.8 1.6
2016-Feb-10 05:00N 54°42' W 005°42'0 0.0 994.4 4.6 0.8
2016-Feb-10 04:00N 54°42' W 005°42'0 0.0 993.7 5.4 1.1
2016-Feb-10 03:00N 54°42' W 005°42'0 0.0 992.7 5.8 1.0
2016-Feb-10 02:00N 54°42' W 005°42'0 0.0 991.9 6.2 1.4
2016-Feb-10 00:00N 54°42' W 005°42'0 0.0 989.9 6.0 1.3
2016-Feb-09 23:00N 54°42' W 005°42'6 6.0 988.8 6.2 2.4
2016-Feb-09 22:00N 54°48' W 005°42'1212.0 987.5 8.9 3.6
2016-Feb-09 21:00N 55°00' W 005°42'6 6.0 985.0 7.4 3.2
2016-Feb-09 20:00N 54°54' W 005°42'6 6.0 984.0 7.6 3.6
2016-Feb-09 19:00N 54°48' W 005°42'0 0.0 984.0 7.1 3.0
2016-Feb-09 18:00N 54°48' W 005°42'9 9.2 982.9 6.8 2.8
2016-Feb-09 17:00N 54°42' W 005°30'1212.5 981.2 6.3 3.7
2016-Feb-09 16:00N 54°30' W 005°24'1212.5 980.7 5.2 2.3
2016-Feb-09 15:00N 54°18' W 005°30'9 9.2 981.0 4.8 1.3
2016-Feb-09 14:00N 54°12' W 005°42'6 6.0 980.7 7.0 1.7
2016-Feb-09 13:00N 54°06' W 005°42'0 0.0 980.1 4.8 1.6
2016-Feb-09 12:00N 54°06' W 005°42'0 0.0 981.1 4.1 1.4
2016-Feb-09 11:00N 54°06' W 005°42'7 7.0 981.2 3.9 1.4
2016-Feb-09 10:00N 54°00' W 005°48'7 7.1 980.7 3.4 1.1
2016-Feb-09 09:00N 54°00' W 006°00'6 6.0 981.1 3.0 0.9
2016-Feb-09 08:00N 53°54' W 006°00'6 6.0 982.4 3.8 1.2
2016-Feb-09 07:00N 54°00' W 006°00'4 3.5 981.7 3.9 1.3
2016-Feb-09 06:00N 54°00' W 005°54'6 6.0 982.6 3.7 1.3
2016-Feb-09 05:00N 54°06' W 005°54'0 0.0 982.3 3.8 1.3
2016-Feb-09 04:00N 54°06' W 005°54'6 6.0 983.2 4.4 1.7
2016-Feb-09 03:00N 54°00' W 005°54'6 6.0 983.9 4.6 1.9
2016-Feb-09 02:00N 54°06' W 005°54'0 0.0 982.7 5.0 2.6
2016-Feb-09 01:00N 54°06' W 005°54'4 3.5 983.0 5.1 1.8
2016-Feb-09 00:00N 54°06' W 005°48'7 7.0 983.1 5.6 1.9
2016-Feb-08 23:00N 54°12' W 005°42'7 6.9 982.4 6.0 2.3
2016-Feb-08 22:00N 54°18' W 005°36'330330.0 982.6 6.4 2.5
2016-Feb-08 21:00N 59°48' W 005°30'32481.0 982.3 6.6 2.4
2016-Feb-08 17:00N 54°24' W 005°24'6 6.0 979.7 7.5 3.8
2016-Feb-08 16:00N 54°30' W 005°24'0 0.0 978.4 8.5 4.4
2016-Feb-08 15:00N 54°30' W 005°24'6 6.0 976.9 8.0 4.8
2016-Feb-08 14:00N 54°36' W 005°24'3 3.5 975.3 8.2 4.4
2016-Feb-08 13:00N 54°36' W 005°30'0 0.0 973.7 8.6 3.9
2016-Feb-08 12:00N 54°36' W 005°30'7 6.9 972.1 8.1 4.1
2016-Feb-08 11:00N 54°42' W 005°36'0 0.0 970.4 7.7 3.6
2016-Feb-08 10:00N 54°42' W 005°36'7 6.9 968.3 8.0 4.2
2016-Feb-08 09:00N 54°42' W 005°48'7 6.9 967.7 7.5 4.0
2016-Feb-08 08:00N 54°36' W 005°54'0 0.0 966.6 6.0 3.3
2016-Feb-08 07:00N 54°36' W 005°54'0 0.0 966.0 5.9 3.3
2016-Feb-08 02:00N 54°36' W 005°54'0 0.0 967.5 5.1 2.2
2016-Feb-08 01:00N 54°36' W 005°54'0 0.0 968.3 5.0 1.8
2016-Feb-07 23:00N 54°36' W 005°54'0 0.0 969.9 5.6 2.4
2016-Feb-07 22:00N 54°36' W 005°54'0 0.0 970.7 6.2 3.3
2016-Feb-07 20:00N 54°36' W 005°54'0 0.0 970.6 6.6 4.0
2016-Feb-07 05:00N 54°36' W 005°54'0 0.0 977.3 3.5 0.4
2016-Feb-07 03:00N 54°36' W 005°54'0 0.0 977.7 3.6 0.5
2016-Feb-06 20:00N 54°36' W 005°54'0 0.0 974.9 5.9 1.2
2016-Feb-06 19:00N 54°36' W 005°54'0 0.0 974.2 6.6 1.3
2016-Feb-06 17:00N 54°36' W 005°54'0 0.0 973.0 8.2 3.9
2016-Feb-06 16:00N 54°36' W 005°54'0 0.0 972.8 9.1 7.3
2016-Feb-06 15:00N 54°36' W 005°54'0 0.0 974.8 8.7 7.0
2016-Feb-06 13:00N 54°36' W 005°54'0 0.0 979.4 7.8 5.5
2016-Feb-06 12:00N 54°36' W 005°54'0 0.0 981.6 7.4 5.2
2016-Feb-06 11:00N 54°36' W 005°54'0 0.0 983.8 6.9 4.9
2016-Feb-06 10:00N 54°36' W 005°54'0 0.0 985.5 6.6 4.5
2016-Feb-06 09:00N 54°36' W 005°54'0 0.0 987.6 6.3 4.2
2016-Feb-06 08:00N 54°36' W 005°54'0 0.0 989.8 5.9 3.5
2016-Feb-06 06:00N 54°36' W 005°54'0 0.0 993.4 6.1 1.4
2016-Feb-06 05:00N 54°36' W 005°54'0 0.0 995.0 5.5 1.3
2016-Feb-06 03:00N 54°36' W 005°54'0 0.0 996.8 4.9 1.1
2016-Feb-06 02:00N 54°36' W 005°54'0 0.0 998.6 4.6 1.6
2016-Feb-06 01:00N 54°36' W 005°54'0 0.0 999.5 4.0 1.8
2016-Feb-05 17:00N 54°36' W 005°54'0 0.0 1001.2 5.2 2.6
2016-Feb-05 13:00N 54°36' W 005°54'0 0.0 1001.9 9.5 6.7
2016-Feb-05 11:00N 54°36' W 005°54'0 0.0 1004.4 9.2 5.8
2016-Feb-05 10:00N 54°36' W 005°54'0 0.0 1005.4 9.3 5.4
2016-Feb-05 09:00N 54°36' W 005°54'0 0.0 1006.1 9.3 5.0
2016-Feb-05 05:00N 54°36' W 005°54'0 0.0 1010.3 9.7 5.8
2016-Feb-05 04:00N 54°36' W 005°54'0 0.0 1011.6 9.8 6.1
2016-Feb-05 03:00N 54°36' W 005°54'0 0.0 1012.7 9.9 6.4
2016-Feb-05 01:00N 54°36' W 005°54'0 0.0 1015.6 9.6 6.7
2016-Feb-04 21:00N 54°36' W 005°54'7 1.7 1018.3 10.4 7.5
2016-Feb-04 17:00N 54°42' W 005°48'3 3.5 1019.6 9.9 8.3
2016-Feb-04 16:00N 54°42' W 005°42'6 6.0 1021.2 10.8 8.3
2016-Feb-04 15:00N 54°48' W 005°42'0 0.0 1021.3 10.7 7.9
2016-Feb-04 14:00N 54°48' W 005°42'3 1.7 1021.6 10.3 8.5
2016-Feb-04 12:00N 54°48' W 005°36'7 6.9 1022.3 9.7 8.4
2016-Feb-04 11:00N 54°42' W 005°30'6 6.0 1022.2 9.2 7.9
2016-Feb-04 10:00N 54°36' W 005°30'0 0.0 1022.4 9.7 7.7
2016-Feb-04 09:00N 54°36' W 005°30'3 1.7 1021.8 9.5 7.6
2016-Feb-04 07:00N 54°36' W 005°24'7 6.9 1019.8 9.2 7.6
2016-Feb-04 06:00N 54°30' W 005°18'7 6.9 1018.9 9.5 7.6
2016-Feb-04 05:00N 54°36' W 005°24'0 0.0 1019.0 9.5 7.9
2016-Feb-04 04:00N 54°36' W 005°24'0 0.0 1018.6 8.8 7.8
2016-Feb-04 00:00N 54°36' W 005°24'0 0.0 1018.2 6.3 4.7
2016-Feb-03 23:00N 54°36' W 005°24'6 3.0 1019.7 5.6 4.0
2016-Feb-03 21:00N 54°30' W 005°24'6 2.0 1022.6 6.3 2.0
2016-Feb-03 18:00N 54°24' W 005°24'7 6.9 1024.0 6.7 3.3
2016-Feb-03 17:00N 54°18' W 005°30'1616.0 1024.9 6.8 3.0
2016-Feb-03 16:00N 54°06' W 005°48'15 5.1 1024.8 7.7 2.6
2016-Feb-03 13:00N 54°12' W 005°24'0 0.0 1023.3 7.2 3.1
2016-Feb-03 12:00N 54°12' W 005°24'0 0.0 1023.0 6.6 2.8
2016-Feb-03 11:00N 54°12' W 005°24'4 1.8 1022.3 6.0 2.6
2016-Feb-03 09:00N 54°12' W 005°30'0 0.0 1019.7 5.7 2.9
2016-Feb-03 08:00N 54°12' W 005°30'6 1.2 1017.4 5.6 2.3
2016-Feb-03 03:00N 54°18' W 005°30'0 0.0 1011.3 3.2 1.3
2016-Feb-03 00:00N 54°18' W 005°30'18 4.5 1012.1 3.1-0.1
2016-Feb-02 20:00N 54°36' W 005°30'3 1.7 1011.4 4.2-0.8
2016-Feb-02 18:00N 54°36' W 005°24'6 6.0 1010.7 5.8-1.7
2016-Feb-02 17:00N 54°30' W 005°24'0 0.0 1009.9 6.5-2.2
2016-Feb-02 15:00N 54°30' W 005°24'6 6.0 1008.2 6.7 0.3
2016-Feb-02 14:00N 54°36' W 005°24'3 3.5 1008.0 7.5 1.8
2016-Feb-02 13:00N 54°36' W 005°30'7 6.9 1007.3 6.9 1.5
2016-Feb-02 12:00N 54°30' W 005°24'   1006.8 6.2 2.0
Track history (hours):
 
Tides and Currents Weather Stations Pressure Air Temp Water Temp Dewpoint Dewpoint Depression Visibility Wind Speed Wind Dir Waves Ship Positions

Callsign AMOUK29 (name unknown)

Last reported at 2016-Feb-12 12:00 UTC. Time now 2016-Feb-12 16:16 UTC.
Position N 54°36' W 005°54'.

Barometer 994.6 mb
Air temperature 4.9 ° C
Dewpoint 2.8 ° C

Date/timePositionNaut miles runAvg speedWind from/ knotsBaromVisibWave heightAir tempDewpointWater temp
2016-Feb-12 12:00N 54°36' W 005°54'7 2.3 994.6 4.9 2.8
2016-Feb-12 09:00N 54°42' W 005°48'7 6.9 994.3 4.4 2.5
2016-Feb-12 08:00N 54°48' W 005°42'3 3.5 993.8 5.1 3.1
2016-Feb-12 07:00N 54°48' W 005°36'3 3.5 993.9 4.8 2.4
2016-Feb-12 06:00N 54°48' W 005°42'0 0.0 993.8 4.8 2.2
2016-Feb-12 05:00N 54°48' W 005°42'3 3.5 993.6 5.2 2.1
2016-Feb-12 04:00N 54°48' W 005°36'0 0.0 994.4 5.2 2.0
2016-Feb-12 03:00N 54°48' W 005°36'0 0.0 994.3 5.2 2.3
2016-Feb-12 02:00N 54°48' W 005°36'6 6.0 995.2 5.4 2.2
2016-Feb-12 01:00N 54°54' W 005°36'0 0.0 996.2 5.4 2.5
2016-Feb-12 00:00N 54°54' W 005°36'6 6.0 996.5 5.4 2.6
2016-Feb-11 23:00N 54°48' W 005°36'7 6.9 997.0 4.8 1.8
2016-Feb-11 22:00N 54°54' W 005°42'9 9.1 998.5 3.5 1.5
2016-Feb-11 21:00N 55°00' W 005°54'6 6.0 998.5 6.0 1.3
2016-Feb-11 20:00N 55°06' W 005°54'7 6.9 999.3 6.0 0.3
2016-Feb-11 19:00N 55°12' W 006°00'1211.9 999.8 5.8 0.5
2016-Feb-11 18:00N 55°18' W 006°18'12 5.9 1000.2 5.6 0.3
2016-Feb-11 16:00N 55°24' W 006°36'3 3.4 1000.7 6.1 1.2
2016-Feb-11 15:00N 55°24' W 006°42'0 0.0 1001.0 6.2-0.4
2016-Feb-11 14:00N 55°24' W 006°42'6 6.0 1001.5 5.8 0.1
2016-Feb-11 13:00N 55°18' W 006°42'0 0.0 1001.9 5.7 1.2
2016-Feb-11 12:00N 55°18' W 006°42'0 0.0 1002.1 5.8 0.6
2016-Feb-11 11:00N 55°18' W 006°42'3 0.9 1002.1 5.6 0.3
2016-Feb-11 07:00N 55°18' W 006°48'0 0.0 1002.0 4.7 1.7
2016-Feb-11 06:00N 55°18' W 006°48'6 3.0 1002.0 4.5 2.0
2016-Feb-11 04:00N 55°12' W 006°48'3 1.1 1002.2 4.1 1.8
2016-Feb-11 01:00N 55°12' W 006°42'12 3.0 1002.4 4.9 1.7
2016-Feb-10 21:00N 55°18' W 006°24'9 9.1 1000.8 6.7-0.7
2016-Feb-10 20:00N 55°24' W 006°36'3 3.4 1000.9 8.1-0.9
2016-Feb-10 19:00N 55°24' W 006°42'3 3.4 1000.6 7.7-0.2
2016-Feb-10 18:00N 55°24' W 006°36'0 0.0 999.9 6.7 1.2
2016-Feb-10 17:00N 55°24' W 006°36'3 3.4 999.2 6.6 1.6
2016-Feb-10 16:00N 55°24' W 006°30'7 6.9 998.8 6.2 0.9
2016-Feb-10 15:00N 55°18' W 006°24'3 3.4 999.3 6.9 2.1
2016-Feb-10 14:00N 55°18' W 006°18'30 4.9 999.0 7.6-0.2
2016-Feb-10 08:00N 54°54' W 005°48'7 3.5 996.1 4.9 0.3
2016-Feb-10 06:00N 54°48' W 005°42'6 6.0 994.8 4.8 1.6
2016-Feb-10 05:00N 54°42' W 005°42'0 0.0 994.4 4.6 0.8
2016-Feb-10 04:00N 54°42' W 005°42'0 0.0 993.7 5.4 1.1
2016-Feb-10 03:00N 54°42' W 005°42'0 0.0 992.7 5.8 1.0
2016-Feb-10 02:00N 54°42' W 005°42'0 0.0 991.9 6.2 1.4
2016-Feb-10 00:00N 54°42' W 005°42'0 0.0 989.9 6.0 1.3
2016-Feb-09 23:00N 54°42' W 005°42'6 6.0 988.8 6.2 2.4
2016-Feb-09 22:00N 54°48' W 005°42'1212.0 987.5 8.9 3.6
2016-Feb-09 21:00N 55°00' W 005°42'6 6.0 985.0 7.4 3.2
2016-Feb-09 20:00N 54°54' W 005°42'6 6.0 984.0 7.6 3.6
2016-Feb-09 19:00N 54°48' W 005°42'0 0.0 984.0 7.1 3.0
2016-Feb-09 18:00N 54°48' W 005°42'9 9.2 982.9 6.8 2.8
2016-Feb-09 17:00N 54°42' W 005°30'1212.5 981.2 6.3 3.7
2016-Feb-09 16:00N 54°30' W 005°24'1212.5 980.7 5.2 2.3
2016-Feb-09 15:00N 54°18' W 005°30'9 9.2 981.0 4.8 1.3
2016-Feb-09 14:00N 54°12' W 005°42'6 6.0 980.7 7.0 1.7
2016-Feb-09 13:00N 54°06' W 005°42'0 0.0 980.1 4.8 1.6
2016-Feb-09 12:00N 54°06' W 005°42'0 0.0 981.1 4.1 1.4
2016-Feb-09 11:00N 54°06' W 005°42'7 7.0 981.2 3.9 1.4
2016-Feb-09 10:00N 54°00' W 005°48'7 7.1 980.7 3.4 1.1
2016-Feb-09 09:00N 54°00' W 006°00'6 6.0 981.1 3.0 0.9
2016-Feb-09 08:00N 53°54' W 006°00'6 6.0 982.4 3.8 1.2
2016-Feb-09 07:00N 54°00' W 006°00'4 3.5 981.7 3.9 1.3
2016-Feb-09 06:00N 54°00' W 005°54'6 6.0 982.6 3.7 1.3
2016-Feb-09 05:00N 54°06' W 005°54'0 0.0 982.3 3.8 1.3
2016-Feb-09 04:00N 54°06' W 005°54'6 6.0 983.2 4.4 1.7
2016-Feb-09 03:00N 54°00' W 005°54'6 6.0 983.9 4.6 1.9
2016-Feb-09 02:00N 54°06' W 005°54'0 0.0 982.7 5.0 2.6
2016-Feb-09 01:00N 54°06' W 005°54'4 3.5 983.0 5.1 1.8
2016-Feb-09 00:00N 54°06' W 005°48'7 7.0 983.1 5.6 1.9
2016-Feb-08 23:00N 54°12' W 005°42'7 6.9 982.4 6.0 2.3
2016-Feb-08 22:00N 54°18' W 005°36'330330.0 982.6 6.4 2.5
2016-Feb-08 21:00N 59°48' W 005°30'32481.0 982.3 6.6 2.4
2016-Feb-08 17:00N 54°24' W 005°24'6 6.0 979.7 7.5 3.8
2016-Feb-08 16:00N 54°30' W 005°24'0 0.0 978.4 8.5 4.4
2016-Feb-08 15:00N 54°30' W 005°24'6 6.0 976.9 8.0 4.8
2016-Feb-08 14:00N 54°36' W 005°24'3 3.5 975.3 8.2 4.4
2016-Feb-08 13:00N 54°36' W 005°30'0 0.0 973.7 8.6 3.9
2016-Feb-08 12:00N 54°36' W 005°30'7 6.9 972.1 8.1 4.1
2016-Feb-08 11:00N 54°42' W 005°36'0 0.0 970.4 7.7 3.6
2016-Feb-08 10:00N 54°42' W 005°36'7 6.9 968.3 8.0 4.2
2016-Feb-08 09:00N 54°42' W 005°48'7 6.9 967.7 7.5 4.0
2016-Feb-08 08:00N 54°36' W 005°54'0 0.0 966.6 6.0 3.3
2016-Feb-08 07:00N 54°36' W 005°54'0 0.0 966.0 5.9 3.3
2016-Feb-08 02:00N 54°36' W 005°54'0 0.0 967.5 5.1 2.2
2016-Feb-08 01:00N 54°36' W 005°54'0 0.0 968.3 5.0 1.8
2016-Feb-07 23:00N 54°36' W 005°54'0 0.0 969.9 5.6 2.4
2016-Feb-07 22:00N 54°36' W 005°54'0 0.0 970.7 6.2 3.3
2016-Feb-07 20:00N 54°36' W 005°54'0 0.0 970.6 6.6 4.0
2016-Feb-07 05:00N 54°36' W 005°54'0 0.0 977.3 3.5 0.4
2016-Feb-07 03:00N 54°36' W 005°54'0 0.0 977.7 3.6 0.5
2016-Feb-06 20:00N 54°36' W 005°54'0 0.0 974.9 5.9 1.2
2016-Feb-06 19:00N 54°36' W 005°54'0 0.0 974.2 6.6 1.3
2016-Feb-06 17:00N 54°36' W 005°54'0 0.0 973.0 8.2 3.9
2016-Feb-06 16:00N 54°36' W 005°54'0 0.0 972.8 9.1 7.3
2016-Feb-06 15:00N 54°36' W 005°54'0 0.0 974.8 8.7 7.0
2016-Feb-06 13:00N 54°36' W 005°54'0 0.0 979.4 7.8 5.5
2016-Feb-06 12:00N 54°36' W 005°54'0 0.0 981.6 7.4 5.2
2016-Feb-06 11:00N 54°36' W 005°54'0 0.0 983.8 6.9 4.9
2016-Feb-06 10:00N 54°36' W 005°54'0 0.0 985.5 6.6 4.5
2016-Feb-06 09:00N 54°36' W 005°54'0 0.0 987.6 6.3 4.2
2016-Feb-06 08:00N 54°36' W 005°54'0 0.0 989.8 5.9 3.5
2016-Feb-06 06:00N 54°36' W 005°54'0 0.0 993.4 6.1 1.4
2016-Feb-06 05:00N 54°36' W 005°54'0 0.0 995.0 5.5 1.3
2016-Feb-06 03:00N 54°36' W 005°54'0 0.0 996.8 4.9 1.1
2016-Feb-06 02:00N 54°36' W 005°54'0 0.0 998.6 4.6 1.6
2016-Feb-06 01:00N 54°36' W 005°54'0 0.0 999.5 4.0 1.8
2016-Feb-05 17:00N 54°36' W 005°54'0 0.0 1001.2 5.2 2.6
2016-Feb-05 13:00N 54°36' W 005°54'0 0.0 1001.9 9.5 6.7
2016-Feb-05 11:00N 54°36' W 005°54'0 0.0 1004.4 9.2 5.8
2016-Feb-05 10:00N 54°36' W 005°54'0 0.0 1005.4 9.3 5.4
2016-Feb-05 09:00N 54°36' W 005°54'0 0.0 1006.1 9.3 5.0
2016-Feb-05 05:00N 54°36' W 005°54'0 0.0 1010.3 9.7 5.8
2016-Feb-05 04:00N 54°36' W 005°54'0 0.0 1011.6 9.8 6.1
2016-Feb-05 03:00N 54°36' W 005°54'0 0.0 1012.7 9.9 6.4
2016-Feb-05 01:00N 54°36' W 005°54'0 0.0 1015.6 9.6 6.7
2016-Feb-04 21:00N 54°36' W 005°54'7 1.7 1018.3 10.4 7.5
2016-Feb-04 17:00N 54°42' W 005°48'3 3.5 1019.6 9.9 8.3
2016-Feb-04 16:00N 54°42' W 005°42'6 6.0 1021.2 10.8 8.3
2016-Feb-04 15:00N 54°48' W 005°42'0 0.0 1021.3 10.7 7.9
2016-Feb-04 14:00N 54°48' W 005°42'3 1.7 1021.6 10.3 8.5
2016-Feb-04 12:00N 54°48' W 005°36'7 6.9 1022.3 9.7 8.4
2016-Feb-04 11:00N 54°42' W 005°30'6 6.0 1022.2 9.2 7.9
2016-Feb-04 10:00N 54°36' W 005°30'0 0.0 1022.4 9.7 7.7
2016-Feb-04 09:00N 54°36' W 005°30'3 1.7 1021.8 9.5 7.6
2016-Feb-04 07:00N 54°36' W 005°24'7 6.9 1019.8 9.2 7.6
2016-Feb-04 06:00N 54°30' W 005°18'7 6.9 1018.9 9.5 7.6
2016-Feb-04 05:00N 54°36' W 005°24'0 0.0 1019.0 9.5 7.9
2016-Feb-04 04:00N 54°36' W 005°24'0 0.0 1018.6 8.8 7.8
2016-Feb-04 00:00N 54°36' W 005°24'0 0.0 1018.2 6.3 4.7
2016-Feb-03 23:00N 54°36' W 005°24'6 3.0 1019.7 5.6 4.0
2016-Feb-03 21:00N 54°30' W 005°24'6 2.0 1022.6 6.3 2.0
2016-Feb-03 18:00N 54°24' W 005°24'7 6.9 1024.0 6.7 3.3
2016-Feb-03 17:00N 54°18' W 005°30'1616.0 1024.9 6.8 3.0
2016-Feb-03 16:00N 54°06' W 005°48'15 5.1 1024.8 7.7 2.6
2016-Feb-03 13:00N 54°12' W 005°24'0 0.0 1023.3 7.2 3.1
2016-Feb-03 12:00N 54°12' W 005°24'0 0.0 1023.0 6.6 2.8
2016-Feb-03 11:00N 54°12' W 005°24'4 1.8 1022.3 6.0 2.6
2016-Feb-03 09:00N 54°12' W 005°30'0 0.0 1019.7 5.7 2.9
2016-Feb-03 08:00N 54°12' W 005°30'6 1.2 1017.4 5.6 2.3
2016-Feb-03 03:00N 54°18' W 005°30'0 0.0 1011.3 3.2 1.3
2016-Feb-03 00:00N 54°18' W 005°30'18 4.5 1012.1 3.1-0.1
2016-Feb-02 20:00N 54°36' W 005°30'3 1.7 1011.4 4.2-0.8
2016-Feb-02 18:00N 54°36' W 005°24'6 6.0 1010.7 5.8-1.7
2016-Feb-02 17:00N 54°30' W 005°24'0 0.0 1009.9 6.5-2.2
2016-Feb-02 15:00N 54°30' W 005°24'6 6.0 1008.2 6.7 0.3
2016-Feb-02 14:00N 54°36' W 005°24'3 3.5 1008.0 7.5 1.8
2016-Feb-02 13:00N 54°36' W 005°30'7 6.9 1007.3 6.9 1.5
2016-Feb-02 12:00N 54°30' W 005°24'   1006.8 6.2 2.0

Dump ship's entire track history